sensor_id;sensor_type;location;lat;lon;timestamp;P1;durP1;ratioP1;P2;durP2;ratioP2
15498;SDS011;7851;52.260;6.030;2023-04-24T00:03:12;0.9;;;0.9;;
15498;SDS011;7851;52.260;6.030;2023-04-24T00:03:12;3.2;;;1;;
15498;SDS011;7851;52.260;6.030;2023-04-24T00:03:12;0.9;;;0.9;;
15498;SDS011;7851;52.260;6.030;2023-04-24T00:04:10;1.4;;;1.1;;
15498;SDS011;7851;52.260;6.030;2023-04-24T00:05:10;1.2;;;1.1;;
15498;SDS011;7851;52.260;6.030;2023-04-24T00:06:10;1;;;1;;
15498;SDS011;7851;52.260;6.030;2023-04-24T00:07:10;1.1;;;1.1;;
15498;SDS011;7851;52.260;6.030;2023-04-24T00:08:10;1.4;;;1.3;;
15498;SDS011;7851;52.260;6.030;2023-04-24T00:09:10;1.2;;;1.2;;
15498;SDS011;7851;52.260;6.030;2023-04-24T00:10:11;1.1;;;1.1;;
15498;SDS011;7851;52.260;6.030;2023-04-24T00:11:10;2.2;;;1.3;;
15498;SDS011;7851;52.260;6.030;2023-04-24T00:12:10;1.4;;;1.4;;
15498;SDS011;7851;52.260;6.030;2023-04-24T00:13:10;1.5;;;1.4;;
15498;SDS011;7851;52.260;6.030;2023-04-24T00:14:10;1.5;;;1.4;;
15498;SDS011;7851;52.260;6.030;2023-04-24T00:15:10;1.4;;;1.3;;
15498;SDS011;7851;52.260;6.030;2023-04-24T00:16:10;2;;;1.5;;
15498;SDS011;7851;52.260;6.030;2023-04-24T00:17:10;1.7;;;1.6;;
15498;SDS011;7851;52.260;6.030;2023-04-24T00:18:10;1.4;;;1.4;;
15498;SDS011;7851;52.260;6.030;2023-04-24T00:19:11;1.5;;;1.5;;
15498;SDS011;7851;52.260;6.030;2023-04-24T00:20:10;1.6;;;1.2;;
15498;SDS011;7851;52.260;6.030;2023-04-24T00:21:10;1.9;;;1.5;;
15498;SDS011;7851;52.260;6.030;2023-04-24T00:22:10;1.4;;;1.3;;
15498;SDS011;7851;52.260;6.030;2023-04-24T00:23:10;1.3;;;1.3;;
15498;SDS011;7851;52.260;6.030;2023-04-24T00:24:10;1.6;;;1.5;;
15498;SDS011;7851;52.260;6.030;2023-04-24T00:25:10;1.5;;;1.4;;
15498;SDS011;7851;52.260;6.030;2023-04-24T00:26:10;1.6;;;1.5;;
15498;SDS011;7851;52.260;6.030;2023-04-24T00:27:10;1.9;;;1.5;;
15498;SDS011;7851;52.260;6.030;2023-04-24T00:28:10;1.6;;;1.5;;
15498;SDS011;7851;52.260;6.030;2023-04-24T00:29:10;1.5;;;1.4;;
15498;SDS011;7851;52.260;6.030;2023-04-24T00:30:10;2.2;;;1.5;;
15498;SDS011;7851;52.260;6.030;2023-04-24T00:31:10;1.6;;;1.5;;
15498;SDS011;7851;52.260;6.030;2023-04-24T00:32:10;1.6;;;1.5;;
15498;SDS011;7851;52.260;6.030;2023-04-24T00:33:10;1.5;;;1.5;;
15498;SDS011;7851;52.260;6.030;2023-04-24T00:34:10;1.3;;;1.3;;
15498;SDS011;7851;52.260;6.030;2023-04-24T00:35:10;1.6;;;1.6;;
15498;SDS011;7851;52.260;6.030;2023-04-24T00:36:10;1.8;;;1.7;;
15498;SDS011;7851;52.260;6.030;2023-04-24T00:37:10;1.9;;;1.7;;
15498;SDS011;7851;52.260;6.030;2023-04-24T00:38:10;2.3;;;1.7;;
15498;SDS011;7851;52.260;6.030;2023-04-24T00:39:10;2.2;;;1.8;;
15498;SDS011;7851;52.260;6.030;2023-04-24T00:40:11;1.8;;;1.7;;
15498;SDS011;7851;52.260;6.030;2023-04-24T00:41:10;3;;;1.7;;
15498;SDS011;7851;52.260;6.030;2023-04-24T00:42:10;2.2;;;2;;
15498;SDS011;7851;52.260;6.030;2023-04-24T00:43:10;2;;;1.9;;
15498;SDS011;7851;52.260;6.030;2023-04-24T00:44:10;2;;;1.9;;
15498;SDS011;7851;52.260;6.030;2023-04-24T00:45:10;2;;;1.9;;
15498;SDS011;7851;52.260;6.030;2023-04-24T00:46:10;2.1;;;2;;
15498;SDS011;7851;52.260;6.030;2023-04-24T00:47:10;2.1;;;2;;
15498;SDS011;7851;52.260;6.030;2023-04-24T00:48:10;2.1;;;1.9;;
15498;SDS011;7851;52.260;6.030;2023-04-24T00:49:10;2.1;;;2;;
15498;SDS011;7851;52.260;6.030;2023-04-24T00:50:10;2.1;;;2;;
15498;SDS011;7851;52.260;6.030;2023-04-24T00:51:10;2.1;;;1.9;;
15498;SDS011;7851;52.260;6.030;2023-04-24T00:52:10;2.1;;;2;;
15498;SDS011;7851;52.260;6.030;2023-04-24T00:53:10;2.1;;;1.9;;
15498;SDS011;7851;52.260;6.030;2023-04-24T00:54:10;2.4;;;2.2;;
15498;SDS011;7851;52.260;6.030;2023-04-24T00:55:10;2.2;;;2.1;;
15498;SDS011;7851;52.260;6.030;2023-04-24T00:56:10;2.9;;;2;;
15498;SDS011;7851;52.260;6.030;2023-04-24T00:57:10;2.2;;;2.1;;
15498;SDS011;7851;52.260;6.030;2023-04-24T00:58:10;2.4;;;2;;
15498;SDS011;7851;52.260;6.030;2023-04-24T00:59:10;2.4;;;2.2;;
15498;SDS011;7851;52.260;6.030;2023-04-24T01:00:11;2.2;;;2.1;;
15498;SDS011;7851;52.260;6.030;2023-04-24T01:01:10;2.5;;;2.3;;
15498;SDS011;7851;52.260;6.030;2023-04-24T01:02:10;2.1;;;2;;
15498;SDS011;7851;52.260;6.030;2023-04-24T01:03:10;2.5;;;2.3;;
15498;SDS011;7851;52.260;6.030;2023-04-24T01:04:11;2.3;;;2.2;;
15498;SDS011;7851;52.260;6.030;2023-04-24T01:05:11;2.5;;;2.3;;
15498;SDS011;7851;52.260;6.030;2023-04-24T01:06:10;2.2;;;2.1;;
15498;SDS011;7851;52.260;6.030;2023-04-24T01:07:10;2.1;;;2;;
15498;SDS011;7851;52.260;6.030;2023-04-24T01:08:10;2.2;;;2.1;;
15498;SDS011;7851;52.260;6.030;2023-04-24T01:09:10;2.6;;;2.4;;
15498;SDS011;7851;52.260;6.030;2023-04-24T01:10:11;2;;;1.9;;
15498;SDS011;7851;52.260;6.030;2023-04-24T01:11:10;2.2;;;2.1;;
15498;SDS011;7851;52.260;6.030;2023-04-24T01:12:10;4.2;;;2.4;;
15498;SDS011;7851;52.260;6.030;2023-04-24T01:13:10;2.4;;;2;;
15498;SDS011;7851;52.260;6.030;2023-04-24T01:14:10;2.2;;;2.1;;
15498;SDS011;7851;52.260;6.030;2023-04-24T01:15:10;2.3;;;2.1;;
15498;SDS011;7851;52.260;6.030;2023-04-24T01:16:10;2.6;;;2.4;;
15498;SDS011;7851;52.260;6.030;2023-04-24T01:17:10;2.6;;;2.4;;
15498;SDS011;7851;52.260;6.030;2023-04-24T01:18:10;2.4;;;2.1;;
15498;SDS011;7851;52.260;6.030;2023-04-24T01:19:11;2.1;;;2;;
15498;SDS011;7851;52.260;6.030;2023-04-24T01:20:10;2.1;;;2;;
15498;SDS011;7851;52.260;6.030;2023-04-24T01:21:10;2.4;;;2.2;;
15498;SDS011;7851;52.260;6.030;2023-04-24T01:22:11;2.1;;;2;;
15498;SDS011;7851;52.260;6.030;2023-04-24T01:23:10;2.2;;;2.1;;
15498;SDS011;7851;52.260;6.030;2023-04-24T01:24:10;2.2;;;2;;
15498;SDS011;7851;52.260;6.030;2023-04-24T01:25:10;2.3;;;2.2;;
15498;SDS011;7851;52.260;6.030;2023-04-24T01:26:10;2.4;;;2.2;;
15498;SDS011;7851;52.260;6.030;2023-04-24T01:27:10;2.4;;;2.2;;
15498;SDS011;7851;52.260;6.030;2023-04-24T01:28:10;2.3;;;2.1;;
15498;SDS011;7851;52.260;6.030;2023-04-24T01:29:10;2.3;;;2.1;;
15498;SDS011;7851;52.260;6.030;2023-04-24T01:30:11;2.2;;;2.1;;
15498;SDS011;7851;52.260;6.030;2023-04-24T01:31:10;2.4;;;2.2;;
15498;SDS011;7851;52.260;6.030;2023-04-24T01:32:10;2.3;;;2.1;;
15498;SDS011;7851;52.260;6.030;2023-04-24T01:33:10;2.1;;;2;;
15498;SDS011;7851;52.260;6.030;2023-04-24T01:34:10;2.1;;;2;;
15498;SDS011;7851;52.260;6.030;2023-04-24T01:35:10;2.2;;;2.1;;
15498;SDS011;7851;52.260;6.030;2023-04-24T01:36:11;2;;;1.9;;
15498;SDS011;7851;52.260;6.030;2023-04-24T01:37:10;2.5;;;2.2;;
15498;SDS011;7851;52.260;6.030;2023-04-24T01:38:10;2.4;;;2.2;;
15498;SDS011;7851;52.260;6.030;2023-04-24T01:39:11;2.2;;;2.1;;
15498;SDS011;7851;52.260;6.030;2023-04-24T01:40:10;2.5;;;1.9;;
15498;SDS011;7851;52.260;6.030;2023-04-24T01:41:10;2.2;;;2.1;;
15498;SDS011;7851;52.260;6.030;2023-04-24T01:42:10;2.1;;;2;;
15498;SDS011;7851;52.260;6.030;2023-04-24T01:43:11;2.6;;;2.4;;
15498;SDS011;7851;52.260;6.030;2023-04-24T01:44:10;2.3;;;2.2;;
15498;SDS011;7851;52.260;6.030;2023-04-24T01:45:11;4.7;;;2.3;;
15498;SDS011;7851;52.260;6.030;2023-04-24T01:46:10;2.2;;;2.1;;
15498;SDS011;7851;52.260;6.030;2023-04-24T01:47:10;2.4;;;2.2;;
15498;SDS011;7851;52.260;6.030;2023-04-24T01:48:11;2.5;;;2.3;;
15498;SDS011;7851;52.260;6.030;2023-04-24T01:49:10;2.4;;;2.3;;
15498;SDS011;7851;52.260;6.030;2023-04-24T01:50:10;2.8;;;2.6;;
15498;SDS011;7851;52.260;6.030;2023-04-24T01:51:10;2.3;;;2.2;;
15498;SDS011;7851;52.260;6.030;2023-04-24T01:52:10;2.5;;;2.3;;
15498;SDS011;7851;52.260;6.030;2023-04-24T01:53:10;2.6;;;2.5;;
15498;SDS011;7851;52.260;6.030;2023-04-24T01:54:10;2.6;;;2.5;;
15498;SDS011;7851;52.260;6.030;2023-04-24T01:55:10;2.9;;;2.5;;
15498;SDS011;7851;52.260;6.030;2023-04-24T01:56:10;2.6;;;2.5;;
15498;SDS011;7851;52.260;6.030;2023-04-24T01:57:10;2.9;;;2.7;;
15498;SDS011;7851;52.260;6.030;2023-04-24T01:58:10;2.8;;;2.6;;
15498;SDS011;7851;52.260;6.030;2023-04-24T01:59:11;2.9;;;2.7;;
15498;SDS011;7851;52.260;6.030;2023-04-24T02:00:11;2.6;;;2.4;;
15498;SDS011;7851;52.260;6.030;2023-04-24T02:01:14;2.8;;;2.6;;
15498;SDS011;7851;52.260;6.030;2023-04-24T02:02:10;2.8;;;2.6;;
15498;SDS011;7851;52.260;6.030;2023-04-24T02:03:10;3.4;;;2.6;;
15498;SDS011;7851;52.260;6.030;2023-04-24T02:04:10;2.9;;;2.6;;
15498;SDS011;7851;52.260;6.030;2023-04-24T02:05:10;3.3;;;3;;
15498;SDS011;7851;52.260;6.030;2023-04-24T02:06:10;3.1;;;2.9;;
15498;SDS011;7851;52.260;6.030;2023-04-24T02:07:10;2.6;;;2.4;;
15498;SDS011;7851;52.260;6.030;2023-04-24T02:08:10;2.9;;;2.7;;
15498;SDS011;7851;52.260;6.030;2023-04-24T02:09:10;3.2;;;3;;
15498;SDS011;7851;52.260;6.030;2023-04-24T02:10:10;3.2;;;3;;
15498;SDS011;7851;52.260;6.030;2023-04-24T02:11:10;3.3;;;3.1;;
15498;SDS011;7851;52.260;6.030;2023-04-24T02:12:10;3.3;;;3;;
15498;SDS011;7851;52.260;6.030;2023-04-24T02:13:10;3.3;;;3.1;;
15498;SDS011;7851;52.260;6.030;2023-04-24T02:14:10;3.3;;;3.1;;
15498;SDS011;7851;52.260;6.030;2023-04-24T02:15:10;5.1;;;3.1;;
15498;SDS011;7851;52.260;6.030;2023-04-24T02:16:10;3.1;;;2.9;;
15498;SDS011;7851;52.260;6.030;2023-04-24T02:17:10;4;;;2.7;;
15498;SDS011;7851;52.260;6.030;2023-04-24T02:18:10;3.1;;;2.9;;
15498;SDS011;7851;52.260;6.030;2023-04-24T02:19:10;3.2;;;2.9;;
15498;SDS011;7851;52.260;6.030;2023-04-24T02:20:10;3.1;;;2.9;;
15498;SDS011;7851;52.260;6.030;2023-04-24T02:21:10;3.3;;;3;;
15498;SDS011;7851;52.260;6.030;2023-04-24T02:22:10;3.3;;;3.1;;
15498;SDS011;7851;52.260;6.030;2023-04-24T02:23:10;3.6;;;3.1;;
15498;SDS011;7851;52.260;6.030;2023-04-24T02:24:10;3.4;;;3.2;;
15498;SDS011;7851;52.260;6.030;2023-04-24T02:25:10;3.2;;;3;;
15498;SDS011;7851;52.260;6.030;2023-04-24T02:26:10;3.3;;;3;;
15498;SDS011;7851;52.260;6.030;2023-04-24T02:27:10;3.3;;;3.1;;
15498;SDS011;7851;52.260;6.030;2023-04-24T02:28:10;3.3;;;3.1;;
15498;SDS011;7851;52.260;6.030;2023-04-24T02:29:10;3.7;;;3.4;;
15498;SDS011;7851;52.260;6.030;2023-04-24T02:30:10;3.3;;;3.1;;
15498;SDS011;7851;52.260;6.030;2023-04-24T02:31:10;3.8;;;3.5;;
15498;SDS011;7851;52.260;6.030;2023-04-24T02:32:10;3.9;;;3.6;;
15498;SDS011;7851;52.260;6.030;2023-04-24T02:33:10;3.2;;;3;;
15498;SDS011;7851;52.260;6.030;2023-04-24T02:34:10;3.6;;;3.4;;
15498;SDS011;7851;52.260;6.030;2023-04-24T02:35:10;3.2;;;3;;
15498;SDS011;7851;52.260;6.030;2023-04-24T02:36:10;3.7;;;3.4;;
15498;SDS011;7851;52.260;6.030;2023-04-24T02:37:10;3.7;;;3.3;;
15498;SDS011;7851;52.260;6.030;2023-04-24T02:38:10;4.2;;;3.9;;
15498;SDS011;7851;52.260;6.030;2023-04-24T02:39:10;3.9;;;3.4;;
15498;SDS011;7851;52.260;6.030;2023-04-24T02:40:11;4;;;3.5;;
15498;SDS011;7851;52.260;6.030;2023-04-24T02:41:10;3.6;;;3.4;;
15498;SDS011;7851;52.260;6.030;2023-04-24T02:42:10;4.8;;;4.1;;
15498;SDS011;7851;52.260;6.030;2023-04-24T02:43:10;4.9;;;3.9;;
15498;SDS011;7851;52.260;6.030;2023-04-24T02:44:10;4.2;;;3.9;;
15498;SDS011;7851;52.260;6.030;2023-04-24T02:45:10;4;;;3.8;;
15498;SDS011;7851;52.260;6.030;2023-04-24T02:46:10;4;;;3.7;;
15498;SDS011;7851;52.260;6.030;2023-04-24T02:47:10;4.7;;;4.3;;
15498;SDS011;7851;52.260;6.030;2023-04-24T02:48:10;4.9;;;4.4;;
15498;SDS011;7851;52.260;6.030;2023-04-24T02:49:10;4.5;;;4.1;;
15498;SDS011;7851;52.260;6.030;2023-04-24T02:50:10;4.6;;;4.2;;
15498;SDS011;7851;52.260;6.030;2023-04-24T02:51:10;4.4;;;4;;
15498;SDS011;7851;52.260;6.030;2023-04-24T02:52:10;4.4;;;4.1;;
15498;SDS011;7851;52.260;6.030;2023-04-24T02:53:10;4.1;;;3.8;;
15498;SDS011;7851;52.260;6.030;2023-04-24T02:54:10;4.3;;;4;;
15498;SDS011;7851;52.260;6.030;2023-04-24T02:55:10;4.9;;;4.5;;
15498;SDS011;7851;52.260;6.030;2023-04-24T02:56:10;4.5;;;4.2;;
15498;SDS011;7851;52.260;6.030;2023-04-24T02:57:10;4.1;;;3.8;;
15498;SDS011;7851;52.260;6.030;2023-04-24T02:58:10;4.3;;;4;;
15498;SDS011;7851;52.260;6.030;2023-04-24T02:59:10;4.1;;;3.8;;
15498;SDS011;7851;52.260;6.030;2023-04-24T03:00:11;3.9;;;3.6;;
15498;SDS011;7851;52.260;6.030;2023-04-24T03:01:10;3.3;;;3.1;;
15498;SDS011;7851;52.260;6.030;2023-04-24T03:02:10;3.2;;;2.9;;
15498;SDS011;7851;52.260;6.030;2023-04-24T03:03:10;3.5;;;3;;
15498;SDS011;7851;52.260;6.030;2023-04-24T03:04:10;3.3;;;3;;
15498;SDS011;7851;52.260;6.030;2023-04-24T03:05:10;2.9;;;2.6;;
15498;SDS011;7851;52.260;6.030;2023-04-24T03:06:10;3.1;;;2.9;;
15498;SDS011;7851;52.260;6.030;2023-04-24T03:07:10;2.7;;;2.5;;
15498;SDS011;7851;52.260;6.030;2023-04-24T03:08:10;2.7;;;2.5;;
15498;SDS011;7851;52.260;6.030;2023-04-24T03:09:10;2.9;;;2.7;;
15498;SDS011;7851;52.260;6.030;2023-04-24T03:10:10;2.4;;;2.2;;
15498;SDS011;7851;52.260;6.030;2023-04-24T03:11:10;2.3;;;2.2;;
15498;SDS011;7851;52.260;6.030;2023-04-24T03:12:10;2.3;;;2.1;;
15498;SDS011;7851;52.260;6.030;2023-04-24T03:13:10;2.2;;;2.1;;
15498;SDS011;7851;52.260;6.030;2023-04-24T03:14:10;2.1;;;2;;
15498;SDS011;7851;52.260;6.030;2023-04-24T03:15:10;2.2;;;2.1;;
15498;SDS011;7851;52.260;6.030;2023-04-24T03:16:10;2.6;;;2.2;;
15498;SDS011;7851;52.260;6.030;2023-04-24T03:17:10;2.5;;;2.4;;
15498;SDS011;7851;52.260;6.030;2023-04-24T03:18:10;2.4;;;2.3;;
15498;SDS011;7851;52.260;6.030;2023-04-24T03:19:10;2.3;;;2.2;;
15498;SDS011;7851;52.260;6.030;2023-04-24T03:20:10;2.3;;;2.1;;
15498;SDS011;7851;52.260;6.030;2023-04-24T03:21:11;2.4;;;2.3;;
15498;SDS011;7851;52.260;6.030;2023-04-24T03:22:10;2.7;;;2.1;;
15498;SDS011;7851;52.260;6.030;2023-04-24T03:23:10;2.5;;;2.4;;
15498;SDS011;7851;52.260;6.030;2023-04-24T03:24:10;2.4;;;2.2;;
15498;SDS011;7851;52.260;6.030;2023-04-24T03:25:10;2.6;;;2.5;;
15498;SDS011;7851;52.260;6.030;2023-04-24T03:26:10;3;;;2.8;;
15498;SDS011;7851;52.260;6.030;2023-04-24T03:27:10;2.6;;;2.4;;
15498;SDS011;7851;52.260;6.030;2023-04-24T03:28:10;2.8;;;2.6;;
15498;SDS011;7851;52.260;6.030;2023-04-24T03:29:10;2.8;;;2.6;;
15498;SDS011;7851;52.260;6.030;2023-04-24T03:30:10;3.2;;;3;;
15498;SDS011;7851;52.260;6.030;2023-04-24T03:31:10;3.5;;;3.2;;
15498;SDS011;7851;52.260;6.030;2023-04-24T03:32:10;3.5;;;3.2;;
15498;SDS011;7851;52.260;6.030;2023-04-24T03:33:10;3.2;;;3;;
15498;SDS011;7851;52.260;6.030;2023-04-24T03:34:10;2.8;;;2.6;;
15498;SDS011;7851;52.260;6.030;2023-04-24T03:35:10;3.5;;;3.2;;
15498;SDS011;7851;52.260;6.030;2023-04-24T03:36:10;2.7;;;2.5;;
15498;SDS011;7851;52.260;6.030;2023-04-24T03:37:10;4;;;2.9;;
15498;SDS011;7851;52.260;6.030;2023-04-24T03:38:10;3;;;2.8;;
15498;SDS011;7851;52.260;6.030;2023-04-24T03:39:10;4.4;;;3.5;;
15498;SDS011;7851;52.260;6.030;2023-04-24T03:40:11;3.2;;;2.9;;
15498;SDS011;7851;52.260;6.030;2023-04-24T03:41:10;3.3;;;3;;
15498;SDS011;7851;52.260;6.030;2023-04-24T03:42:10;3.4;;;3.1;;
15498;SDS011;7851;52.260;6.030;2023-04-24T03:43:10;2.9;;;2.6;;
15498;SDS011;7851;52.260;6.030;2023-04-24T03:44:10;3.3;;;3.1;;
15498;SDS011;7851;52.260;6.030;2023-04-24T03:45:10;3.5;;;3.2;;
15498;SDS011;7851;52.260;6.030;2023-04-24T03:46:10;3.4;;;3.1;;
15498;SDS011;7851;52.260;6.030;2023-04-24T03:47:10;3.2;;;3;;
15498;SDS011;7851;52.260;6.030;2023-04-24T03:48:10;2.9;;;2.7;;
15498;SDS011;7851;52.260;6.030;2023-04-24T03:49:10;5.7;;;3.1;;
15498;SDS011;7851;52.260;6.030;2023-04-24T03:50:10;3.4;;;3.2;;
15498;SDS011;7851;52.260;6.030;2023-04-24T03:51:10;3.6;;;3.3;;
15498;SDS011;7851;52.260;6.030;2023-04-24T03:52:10;2.9;;;2.7;;
15498;SDS011;7851;52.260;6.030;2023-04-24T03:53:10;2.8;;;2.6;;
15498;SDS011;7851;52.260;6.030;2023-04-24T03:54:10;3.1;;;2.9;;
15498;SDS011;7851;52.260;6.030;2023-04-24T03:55:10;3.1;;;2.9;;
15498;SDS011;7851;52.260;6.030;2023-04-24T03:56:10;3.3;;;3.1;;
15498;SDS011;7851;52.260;6.030;2023-04-24T03:57:10;3.1;;;2.9;;
15498;SDS011;7851;52.260;6.030;2023-04-24T03:58:10;3.5;;;3.2;;
15498;SDS011;7851;52.260;6.030;2023-04-24T03:59:10;3.1;;;2.9;;
15498;SDS011;7851;52.260;6.030;2023-04-24T04:00:11;3.1;;;2.8;;
15498;SDS011;7851;52.260;6.030;2023-04-24T04:01:10;5.7;;;3.7;;
15498;SDS011;7851;52.260;6.030;2023-04-24T04:02:10;3.5;;;3.2;;
15498;SDS011;7851;52.260;6.030;2023-04-24T04:03:10;3.4;;;3.2;;
15498;SDS011;7851;52.260;6.030;2023-04-24T04:04:10;3.6;;;3.3;;
15498;SDS011;7851;52.260;6.030;2023-04-24T04:05:10;3.2;;;3;;
15498;SDS011;7851;52.260;6.030;2023-04-24T04:06:10;3.6;;;3.2;;
15498;SDS011;7851;52.260;6.030;2023-04-24T04:07:10;3.7;;;3.3;;
15498;SDS011;7851;52.260;6.030;2023-04-24T04:08:10;3.7;;;3.4;;
15498;SDS011;7851;52.260;6.030;2023-04-24T04:09:10;3.2;;;3;;
15498;SDS011;7851;52.260;6.030;2023-04-24T04:10:10;3.3;;;3;;
15498;SDS011;7851;52.260;6.030;2023-04-24T04:11:10;3.7;;;3.4;;
15498;SDS011;7851;52.260;6.030;2023-04-24T04:12:10;4.5;;;2.9;;
15498;SDS011;7851;52.260;6.030;2023-04-24T04:13:10;2.8;;;2.6;;
15498;SDS011;7851;52.260;6.030;2023-04-24T04:14:10;2.7;;;2.5;;
15498;SDS011;7851;52.260;6.030;2023-04-24T04:15:10;2.9;;;2.7;;
15498;SDS011;7851;52.260;6.030;2023-04-24T04:16:10;2.6;;;2.4;;
15498;SDS011;7851;52.260;6.030;2023-04-24T04:17:10;3.4;;;2.9;;
15498;SDS011;7851;52.260;6.030;2023-04-24T04:18:10;2.7;;;2.5;;
15498;SDS011;7851;52.260;6.030;2023-04-24T04:19:10;2.8;;;2.6;;
15498;SDS011;7851;52.260;6.030;2023-04-24T04:20:10;2.7;;;2.5;;
15498;SDS011;7851;52.260;6.030;2023-04-24T04:21:10;2.4;;;2.3;;
15498;SDS011;7851;52.260;6.030;2023-04-24T04:22:10;2.5;;;2.4;;
15498;SDS011;7851;52.260;6.030;2023-04-24T04:23:10;2.9;;;2.7;;
15498;SDS011;7851;52.260;6.030;2023-04-24T04:24:10;2.7;;;2.5;;
15498;SDS011;7851;52.260;6.030;2023-04-24T04:25:10;2.4;;;2.3;;
15498;SDS011;7851;52.260;6.030;2023-04-24T04:26:10;2.6;;;2.4;;
15498;SDS011;7851;52.260;6.030;2023-04-24T04:27:10;2.4;;;2.3;;
15498;SDS011;7851;52.260;6.030;2023-04-24T04:28:10;2.6;;;2.4;;
15498;SDS011;7851;52.260;6.030;2023-04-24T04:29:10;2.4;;;2.3;;
15498;SDS011;7851;52.260;6.030;2023-04-24T04:30:10;2.4;;;2.3;;
15498;SDS011;7851;52.260;6.030;2023-04-24T04:31:10;2.4;;;2.3;;
15498;SDS011;7851;52.260;6.030;2023-04-24T04:32:10;2.5;;;2.3;;
15498;SDS011;7851;52.260;6.030;2023-04-24T04:33:10;2.5;;;2.3;;
15498;SDS011;7851;52.260;6.030;2023-04-24T04:34:10;2.4;;;2.3;;
15498;SDS011;7851;52.260;6.030;2023-04-24T04:35:10;2.4;;;2.3;;
15498;SDS011;7851;52.260;6.030;2023-04-24T04:36:10;2.5;;;2.4;;
15498;SDS011;7851;52.260;6.030;2023-04-24T04:37:10;2.6;;;2.4;;
15498;SDS011;7851;52.260;6.030;2023-04-24T04:38:10;2.5;;;2.3;;
15498;SDS011;7851;52.260;6.030;2023-04-24T04:39:10;2.3;;;2.2;;
15498;SDS011;7851;52.260;6.030;2023-04-24T04:40:10;2.4;;;2.3;;
15498;SDS011;7851;52.260;6.030;2023-04-24T04:41:10;2.3;;;2.1;;
15498;SDS011;7851;52.260;6.030;2023-04-24T04:42:10;4;;;2.3;;
15498;SDS011;7851;52.260;6.030;2023-04-24T04:43:10;2.3;;;2.2;;
15498;SDS011;7851;52.260;6.030;2023-04-24T04:44:10;2.1;;;2;;
15498;SDS011;7851;52.260;6.030;2023-04-24T04:45:10;2.8;;;2.2;;
15498;SDS011;7851;52.260;6.030;2023-04-24T04:46:10;2.2;;;2.1;;
15498;SDS011;7851;52.260;6.030;2023-04-24T04:47:10;2.4;;;2.3;;
15498;SDS011;7851;52.260;6.030;2023-04-24T04:48:10;2.4;;;2.3;;
15498;SDS011;7851;52.260;6.030;2023-04-24T04:49:10;2.9;;;2.7;;
15498;SDS011;7851;52.260;6.030;2023-04-24T04:50:10;2.5;;;2.4;;
15498;SDS011;7851;52.260;6.030;2023-04-24T04:51:10;2.6;;;2.4;;
15498;SDS011;7851;52.260;6.030;2023-04-24T04:52:10;2.5;;;2.4;;
15498;SDS011;7851;52.260;6.030;2023-04-24T04:53:10;2.4;;;2.3;;
15498;SDS011;7851;52.260;6.030;2023-04-24T04:54:10;3;;;2.8;;
15498;SDS011;7851;52.260;6.030;2023-04-24T04:55:10;2.5;;;2.4;;
15498;SDS011;7851;52.260;6.030;2023-04-24T04:56:10;2.5;;;2.4;;
15498;SDS011;7851;52.260;6.030;2023-04-24T04:57:10;2.6;;;2.4;;
15498;SDS011;7851;52.260;6.030;2023-04-24T04:58:10;2.7;;;2.5;;
15498;SDS011;7851;52.260;6.030;2023-04-24T04:59:10;2.2;;;2;;
15498;SDS011;7851;52.260;6.030;2023-04-24T05:00:11;2.1;;;1.9;;
15498;SDS011;7851;52.260;6.030;2023-04-24T05:01:10;2.3;;;2.1;;
15498;SDS011;7851;52.260;6.030;2023-04-24T05:02:10;2.1;;;2;;
15498;SDS011;7851;52.260;6.030;2023-04-24T05:03:10;1.9;;;1.8;;
15498;SDS011;7851;52.260;6.030;2023-04-24T05:04:10;2;;;1.9;;
15498;SDS011;7851;52.260;6.030;2023-04-24T05:05:10;1.8;;;1.7;;
15498;SDS011;7851;52.260;6.030;2023-04-24T05:06:10;1.7;;;1.7;;
15498;SDS011;7851;52.260;6.030;2023-04-24T05:07:10;1.6;;;1.5;;
15498;SDS011;7851;52.260;6.030;2023-04-24T05:08:10;1.9;;;1.8;;
15498;SDS011;7851;52.260;6.030;2023-04-24T05:09:10;1.8;;;1.7;;
15498;SDS011;7851;52.260;6.030;2023-04-24T05:10:11;2.2;;;2;;
15498;SDS011;7851;52.260;6.030;2023-04-24T05:11:10;2.3;;;2.1;;
15498;SDS011;7851;52.260;6.030;2023-04-24T05:12:10;3;;;2.1;;
15498;SDS011;7851;52.260;6.030;2023-04-24T05:13:10;2.8;;;2.4;;
15498;SDS011;7851;52.260;6.030;2023-04-24T05:14:10;3.5;;;2.3;;
15498;SDS011;7851;52.260;6.030;2023-04-24T05:15:10;2.6;;;2.4;;
15498;SDS011;7851;52.260;6.030;2023-04-24T05:16:10;2.5;;;2.4;;
15498;SDS011;7851;52.260;6.030;2023-04-24T05:17:10;2.5;;;2.3;;
15498;SDS011;7851;52.260;6.030;2023-04-24T05:18:10;2.9;;;2.7;;
15498;SDS011;7851;52.260;6.030;2023-04-24T05:19:10;3.1;;;2.8;;
15498;SDS011;7851;52.260;6.030;2023-04-24T05:20:10;2.6;;;2.5;;
15498;SDS011;7851;52.260;6.030;2023-04-24T05:21:10;3;;;2.8;;
15498;SDS011;7851;52.260;6.030;2023-04-24T05:22:10;2.9;;;2.7;;
15498;SDS011;7851;52.260;6.030;2023-04-24T05:23:10;2.2;;;2.1;;
15498;SDS011;7851;52.260;6.030;2023-04-24T05:24:10;2.1;;;2;;
15498;SDS011;7851;52.260;6.030;2023-04-24T05:25:10;2;;;1.9;;
15498;SDS011;7851;52.260;6.030;2023-04-24T05:26:10;2.2;;;2.1;;
15498;SDS011;7851;52.260;6.030;2023-04-24T05:27:10;2.1;;;2;;
15498;SDS011;7851;52.260;6.030;2023-04-24T05:28:10;2.2;;;2.1;;
15498;SDS011;7851;52.260;6.030;2023-04-24T05:29:10;2.2;;;2.1;;
15498;SDS011;7851;52.260;6.030;2023-04-24T05:30:10;2.4;;;2.2;;
15498;SDS011;7851;52.260;6.030;2023-04-24T05:31:10;2.2;;;2.1;;
15498;SDS011;7851;52.260;6.030;2023-04-24T05:32:10;2.4;;;2.2;;
15498;SDS011;7851;52.260;6.030;2023-04-24T05:33:10;2.3;;;2;;
15498;SDS011;7851;52.260;6.030;2023-04-24T05:34:10;1.7;;;1.6;;
15498;SDS011;7851;52.260;6.030;2023-04-24T05:35:10;1.8;;;1.7;;
15498;SDS011;7851;52.260;6.030;2023-04-24T05:36:10;1.7;;;1.6;;
15498;SDS011;7851;52.260;6.030;2023-04-24T05:37:10;1.4;;;1.4;;
15498;SDS011;7851;52.260;6.030;2023-04-24T05:38:10;1.7;;;1.6;;
15498;SDS011;7851;52.260;6.030;2023-04-24T05:39:10;2;;;1.5;;
15498;SDS011;7851;52.260;6.030;2023-04-24T05:40:10;1.7;;;1.6;;
15498;SDS011;7851;52.260;6.030;2023-04-24T05:41:10;1.7;;;1.6;;
15498;SDS011;7851;52.260;6.030;2023-04-24T05:42:10;1.3;;;1.3;;
15498;SDS011;7851;52.260;6.030;2023-04-24T05:43:10;1.5;;;1.4;;
15498;SDS011;7851;52.260;6.030;2023-04-24T05:44:10;1.4;;;1.4;;
15498;SDS011;7851;52.260;6.030;2023-04-24T05:45:10;1.2;;;1.2;;
15498;SDS011;7851;52.260;6.030;2023-04-24T05:46:11;1.2;;;1.2;;
15498;SDS011;7851;52.260;6.030;2023-04-24T05:47:10;1.1;;;1.1;;
15498;SDS011;7851;52.260;6.030;2023-04-24T05:48:10;1.1;;;1.1;;
15498;SDS011;7851;52.260;6.030;2023-04-24T05:49:10;0.8;;;0.8;;
15498;SDS011;7851;52.260;6.030;2023-04-24T05:50:10;0.9;;;0.9;;
15498;SDS011;7851;52.260;6.030;2023-04-24T05:51:10;0.9;;;0.9;;
15498;SDS011;7851;52.260;6.030;2023-04-24T05:52:10;1.1;;;1;;
15498;SDS011;7851;52.260;6.030;2023-04-24T05:53:10;0.8;;;0.8;;
15498;SDS011;7851;52.260;6.030;2023-04-24T05:54:10;0.9;;;0.9;;
15498;SDS011;7851;52.260;6.030;2023-04-24T05:55:10;0.8;;;0.8;;
15498;SDS011;7851;52.260;6.030;2023-04-24T05:56:10;0.7;;;0.7;;
15498;SDS011;7851;52.260;6.030;2023-04-24T05:57:10;0.9;;;0.9;;
15498;SDS011;7851;52.260;6.030;2023-04-24T05:58:10;1.1;;;1.1;;
15498;SDS011;7851;52.260;6.030;2023-04-24T05:59:10;1;;;1;;
15498;SDS011;7851;52.260;6.030;2023-04-24T06:00:11;0.7;;;0.7;;
15498;SDS011;7851;52.260;6.030;2023-04-24T06:01:10;0.6;;;0.6;;
15498;SDS011;7851;52.260;6.030;2023-04-24T06:02:10;1;;;0.9;;
15498;SDS011;7851;52.260;6.030;2023-04-24T06:03:10;0.8;;;0.8;;
15498;SDS011;7851;52.260;6.030;2023-04-24T06:04:11;0.8;;;0.8;;
15498;SDS011;7851;52.260;6.030;2023-04-24T06:05:10;1;;;1;;
15498;SDS011;7851;52.260;6.030;2023-04-24T06:06:10;3.7;;;1;;
15498;SDS011;7851;52.260;6.030;2023-04-24T06:07:10;1.5;;;0.9;;
15498;SDS011;7851;52.260;6.030;2023-04-24T06:08:10;1;;;1;;
15498;SDS011;7851;52.260;6.030;2023-04-24T06:09:10;1.3;;;0.9;;
15498;SDS011;7851;52.260;6.030;2023-04-24T06:10:10;1.4;;;0.9;;
15498;SDS011;7851;52.260;6.030;2023-04-24T06:11:10;6.9;;;1.3;;
15498;SDS011;7851;52.260;6.030;2023-04-24T06:12:10;2;;;1.2;;
15498;SDS011;7851;52.260;6.030;2023-04-24T06:13:10;1.1;;;1.1;;
15498;SDS011;7851;52.260;6.030;2023-04-24T06:14:10;3.8;;;1.2;;
15498;SDS011;7851;52.260;6.030;2023-04-24T06:15:10;1;;;1;;
15498;SDS011;7851;52.260;6.030;2023-04-24T06:16:10;1.2;;;1.2;;
15498;SDS011;7851;52.260;6.030;2023-04-24T06:17:10;2;;;1.9;;
15498;SDS011;7851;52.260;6.030;2023-04-24T06:18:10;1.6;;;1.6;;
15498;SDS011;7851;52.260;6.030;2023-04-24T06:19:10;1.9;;;1.8;;
15498;SDS011;7851;52.260;6.030;2023-04-24T06:20:10;1.8;;;1.7;;
15498;SDS011;7851;52.260;6.030;2023-04-24T06:21:10;1.9;;;1.8;;
15498;SDS011;7851;52.260;6.030;2023-04-24T06:22:10;1.9;;;1.8;;